createdAt,value
2017-05-24T00:02:17.132Z,9.55
2017-05-24T00:04:43.747Z,13.43
2017-05-24T00:07:10.410Z,7.97
2017-05-24T00:09:37.072Z,8.82
2017-05-24T00:12:03.687Z,9.32
2017-05-24T00:14:30.308Z,11.45
2017-05-24T00:16:57.080Z,8.78
2017-05-24T00:19:23.811Z,10.73
2017-05-24T00:21:50.425Z,7.98
2017-05-24T00:24:17.056Z,9.02
2017-05-24T00:26:43.727Z,10.67
2017-05-24T00:29:10.366Z,8.27
2017-05-24T00:31:37.006Z,10.95
2017-05-24T00:34:03.622Z,8.55
2017-05-24T00:36:30.239Z,8.58
2017-05-24T00:38:56.871Z,11.78
2017-05-24T00:41:23.486Z,7.28
2017-05-24T00:43:50.200Z,10.83
2017-05-24T00:46:16.842Z,13.07
2017-05-24T00:48:43.482Z,8.00
2017-05-24T00:51:10.096Z,7.63
2017-05-24T00:53:36.792Z,7.87
2017-05-24T00:56:03.406Z,7.82
2017-05-24T00:58:30.023Z,11.98
2017-05-24T01:00:56.660Z,10.58
2017-05-24T01:03:23.311Z,10.22
2017-05-24T01:05:50.557Z,12.72
2017-05-24T01:08:17.206Z,8.60
2017-05-24T01:10:43.843Z,6.92
2017-05-24T01:13:10.462Z,7.53
2017-05-24T01:15:37.127Z,7.45
2017-05-24T01:18:03.742Z,5.55
2017-05-24T01:20:30.363Z,5.25
2017-05-24T01:22:57.039Z,4.77
2017-05-24T01:25:23.679Z,4.28
2017-05-24T01:27:50.320Z,4.57
2017-05-24T01:30:16.952Z,3.40
2017-05-24T01:32:43.566Z,8.80
2017-05-24T01:35:10.271Z,3.15
2017-05-24T01:37:37.012Z,7.42
2017-05-24T01:40:03.719Z,5.67
2017-05-24T01:42:30.331Z,4.87
2017-05-24T01:44:56.968Z,10.27
2017-05-24T01:47:23.579Z,4.28
2017-05-24T01:49:50.196Z,7.08
2017-05-24T01:52:17.015Z,3.10
2017-05-24T01:54:43.628Z,9.93
2017-05-24T01:57:10.248Z,6.85
2017-05-24T01:59:36.933Z,8.95
2017-05-24T02:02:03.542Z,5.23
2017-05-24T02:04:30.211Z,8.20
2017-05-24T02:06:56.847Z,4.25
2017-05-24T02:09:23.487Z,5.67
2017-05-24T02:11:50.127Z,8.03
2017-05-24T02:14:16.764Z,7.63
2017-05-24T02:16:43.378Z,13.65
2017-05-24T02:19:09.999Z,11.67
2017-05-24T02:21:36.888Z,7.77
2017-05-24T02:24:03.526Z,8.45
2017-05-24T02:26:30.143Z,9.60
2017-05-24T02:28:56.775Z,9.47
2017-05-24T02:31:23.443Z,8.85
2017-05-24T02:33:50.063Z,10.85
2017-05-24T02:36:16.694Z,9.37
2017-05-24T02:38:43.311Z,9.03
2017-05-24T02:41:10.006Z,10.43
2017-05-24T02:43:36.740Z,12.02
2017-05-24T02:46:03.361Z,11.53
2017-05-24T02:48:29.983Z,12.40
2017-05-24T02:50:56.763Z,11.48
2017-05-24T02:53:23.381Z,10.03
2017-05-24T02:55:49.994Z,9.90
2017-05-24T02:58:16.639Z,11.90
2017-05-24T03:00:43.315Z,9.17
2017-05-24T03:03:09.955Z,8.95
2017-05-24T03:05:36.695Z,8.28
2017-05-24T03:08:03.318Z,10.92
2017-05-24T03:10:29.982Z,8.38
2017-05-24T03:12:56.722Z,11.23
2017-05-24T03:15:23.337Z,8.67
2017-05-24T03:17:49.955Z,13.58
2017-05-24T03:20:16.669Z,8.40
2017-05-24T03:22:43.376Z,10.47
2017-05-24T03:25:10.022Z,10.30
2017-05-24T03:27:36.759Z,9.07
2017-05-24T03:30:03.394Z,15.55
2017-05-24T03:32:30.007Z,9.13
2017-05-24T03:34:56.671Z,11.92
2017-05-24T03:37:23.294Z,9.40
2017-05-24T03:39:49.951Z,9.87
2017-05-24T03:42:16.583Z,9.80
2017-05-24T03:44:43.205Z,7.78
2017-05-24T03:47:09.866Z,12.08
2017-05-24T03:49:36.507Z,7.42
2017-05-24T03:52:03.125Z,9.08
2017-05-24T03:54:29.787Z,7.58
2017-05-24T03:56:56.835Z,8.08
2017-05-24T03:59:23.451Z,9.20
2017-05-24T04:01:50.071Z,11.17
2017-05-24T04:04:16.703Z,8.95
2017-05-24T04:06:43.323Z,8.70
2017-05-24T04:09:10.510Z,9.12
2017-05-24T04:11:37.195Z,7.17
2017-05-24T04:14:03.808Z,9.97
2017-05-24T04:16:30.419Z,7.55
2017-05-24T04:18:57.095Z,10.00
2017-05-24T04:21:23.712Z,10.07
2017-05-24T04:23:50.327Z,7.55
2017-05-24T04:26:17.049Z,10.05
2017-05-24T04:28:43.664Z,8.32
2017-05-24T04:31:10.532Z,11.80
2017-05-24T04:33:37.520Z,17.37
2017-05-24T04:36:04.255Z,9.97
2017-05-24T04:38:31.166Z,7.17
2017-05-24T04:40:58.765Z,7.45
2017-05-24T04:43:25.777Z,6.98
2017-05-24T04:45:52.398Z,10.63
2017-05-24T04:48:19.393Z,6.88
2017-05-24T04:50:47.264Z,5.40
2017-05-24T04:53:14.277Z,4.90
2017-05-24T04:55:42.087Z,5.12
2017-05-24T04:58:11.585Z,14.70
2017-05-24T05:00:38.255Z,2.80
2017-05-24T05:03:05.591Z,2.95
2017-05-24T05:05:33.513Z,5.07
2017-05-24T05:08:00.331Z,6.33
2017-05-24T05:10:26.962Z,4.00
2017-05-24T05:12:54.148Z,3.37
2017-05-24T05:15:21.099Z,7.78
2017-05-24T05:17:48.554Z,4.32
2017-05-24T05:20:16.932Z,10.28
2017-05-24T05:22:43.618Z,8.77
2017-05-24T05:25:10.524Z,5.93
2017-05-24T05:27:37.155Z,7.83
2017-05-24T05:30:03.863Z,4.15
2017-05-24T05:32:30.503Z,16.33
2017-05-24T05:34:57.116Z,8.87
2017-05-24T05:37:23.739Z,6.60
2017-05-24T05:39:50.386Z,5.52
2017-05-24T05:42:17.000Z,5.55
2017-05-24T05:44:43.627Z,2.50
2017-05-24T05:47:11.394Z,7.93
2017-05-24T05:49:38.070Z,11.97
2017-05-24T05:52:05.762Z,6.47
2017-05-24T05:54:32.411Z,6.23
2017-05-24T05:56:59.588Z,4.07
2017-05-24T05:59:27.151Z,6.18
2017-05-24T06:01:54.301Z,9.88
2017-05-24T06:04:25.652Z,4.02
2017-05-24T06:06:53.726Z,9.83
2017-05-24T06:09:22.437Z,5.88
2017-05-24T06:11:49.387Z,7.73
2017-05-24T06:14:16.292Z,5.28
2017-05-24T06:16:42.924Z,4.10
2017-05-24T06:19:10.048Z,5.53
2017-05-24T06:21:39.322Z,5.00
2017-05-24T06:24:08.442Z,4.87
2017-05-24T06:26:37.559Z,6.95
2017-05-24T06:29:06.474Z,2.67
2017-05-24T06:31:34.289Z,6.75
2017-05-24T06:34:03.413Z,6.75
2017-05-24T06:36:31.517Z,6.93
2017-05-24T06:38:58.465Z,3.17
2017-05-24T06:41:25.999Z,6.20
2017-05-24T06:43:52.638Z,3.90
2017-05-24T06:46:19.302Z,6.78
2017-05-24T06:48:45.974Z,5.65
2017-05-24T06:51:12.732Z,6.77
2017-05-24T06:53:39.732Z,4.93
2017-05-24T06:56:06.677Z,6.02
2017-05-24T06:58:33.991Z,4.68
2017-05-24T07:01:00.853Z,6.47
2017-05-24T07:03:28.335Z,4.95
2017-05-24T07:05:55.798Z,6.95
2017-05-24T07:08:22.741Z,4.37
2017-05-24T07:10:49.391Z,3.22
2017-05-24T07:13:16.090Z,3.40
2017-05-24T07:15:42.724Z,4.06
2017-05-24T07:18:10.369Z,4.25
2017-05-24T07:20:37.131Z,6.48
2017-05-24T07:23:04.048Z,6.50
2017-05-24T07:25:30.731Z,3.80
2017-05-24T07:27:58.309Z,7.22
2017-05-24T07:30:26.730Z,6.87
2017-05-24T07:32:54.262Z,6.00
2017-05-24T07:35:22.083Z,6.37
2017-05-24T07:37:49.781Z,8.78
2017-05-24T07:40:17.547Z,2.70
2017-05-24T07:42:44.261Z,9.48
2017-05-24T07:45:10.887Z,4.82
2017-05-24T07:47:37.514Z,3.47
2017-05-24T07:50:04.409Z,2.57
2017-05-24T07:52:31.100Z,7.73
2017-05-24T07:54:57.789Z,6.65
2017-05-24T07:57:24.448Z,2.17
2017-05-24T07:59:51.066Z,5.03
2017-05-24T08:02:17.911Z,6.17
2017-05-24T08:04:44.768Z,6.32
2017-05-24T08:07:11.588Z,3.60
2017-05-24T08:09:38.204Z,4.85
2017-05-24T08:12:04.843Z,5.87
2017-05-24T08:14:31.459Z,3.68
2017-05-24T08:16:58.077Z,6.93
2017-05-24T08:19:24.754Z,8.07
2017-05-24T08:21:52.226Z,5.42
2017-05-24T08:24:19.904Z,2.85
2017-05-24T08:26:47.409Z,3.32
2017-05-24T08:29:16.265Z,3.30
2017-05-24T08:31:42.938Z,5.10
2017-05-24T08:34:09.583Z,2.10
2017-05-24T08:36:36.507Z,3.60
2017-05-24T08:39:03.952Z,4.88
2017-05-24T08:41:32.860Z,3.42
2017-05-24T08:44:00.960Z,2.87
2017-05-24T08:46:28.371Z,1.70
2017-05-24T08:48:55.080Z,16.88
2017-05-24T08:51:22.238Z,4.90
2017-05-24T08:53:48.927Z,2.87
2017-05-24T08:56:15.607Z,6.12
2017-05-24T08:58:43.001Z,3.82
2017-05-24T09:01:09.703Z,2.75
2017-05-24T09:03:36.343Z,4.83
2017-05-24T09:06:02.967Z,3.35
2017-05-24T09:08:30.273Z,2.95
2017-05-24T09:10:56.920Z,2.75
2017-05-24T09:13:23.540Z,2.32
2017-05-24T09:15:50.292Z,8.52
2017-05-24T09:18:16.931Z,5.55
2017-05-24T09:20:43.547Z,8.92
2017-05-24T09:23:10.618Z,3.88
2017-05-24T09:25:37.425Z,6.57
2017-05-24T09:28:04.205Z,4.25
2017-05-24T09:30:31.968Z,4.90
2017-05-24T09:32:58.676Z,3.53
2017-05-24T09:35:25.514Z,3.00
2017-05-24T09:37:52.192Z,3.60
2017-05-24T09:40:18.830Z,5.68
2017-05-24T09:42:45.452Z,3.92
2017-05-24T09:45:12.063Z,3.70
2017-05-24T09:47:38.816Z,4.63
2017-05-24T09:50:05.455Z,8.37
2017-05-24T09:52:32.075Z,6.57
2017-05-24T09:54:58.942Z,3.45
2017-05-24T09:57:25.559Z,2.57
2017-05-24T09:59:52.178Z,3.32
2017-05-24T10:02:18.854Z,4.18
2017-05-24T10:04:45.472Z,4.93
2017-05-24T10:07:12.100Z,10.62
2017-05-24T10:09:38.775Z,6.28
2017-05-24T10:12:05.396Z,3.80
2017-05-24T10:14:32.086Z,2.72
2017-05-24T10:16:58.727Z,5.47
2017-05-24T10:19:25.445Z,4.90
2017-05-24T10:21:52.059Z,3.62
2017-05-24T10:24:18.708Z,8.15
2017-05-24T10:26:45.331Z,5.33
2017-05-24T10:29:11.988Z,4.12
2017-05-24T10:31:38.932Z,3.63
2017-05-24T10:34:05.572Z,5.13
2017-05-24T10:36:32.224Z,4.75
2017-05-24T10:38:58.880Z,4.40
2017-05-24T10:41:31.211Z,12.15
2017-05-24T10:43:57.827Z,3.73
2017-05-24T10:46:24.467Z,5.87
2017-05-24T10:48:51.144Z,5.10
2017-05-24T10:51:17.759Z,4.30
2017-05-24T10:53:44.404Z,7.08
2017-05-24T10:56:11.059Z,5.72
2017-05-24T10:58:37.676Z,4.87
2017-05-24T11:01:04.336Z,5.73
2017-05-24T11:03:30.977Z,6.07
2017-05-24T11:05:57.602Z,2.72
2017-05-24T11:08:24.352Z,5.32
2017-05-24T11:10:50.974Z,5.53
2017-05-24T11:13:17.599Z,4.97
2017-05-24T11:15:44.271Z,7.00
2017-05-24T11:18:10.883Z,9.28
2017-05-24T11:20:37.505Z,9.35
2017-05-24T11:23:04.187Z,4.90
2017-05-24T11:25:30.808Z,5.65
2017-05-24T11:27:57.467Z,6.53
2017-05-24T11:30:24.105Z,2.50
2017-05-24T11:32:50.747Z,6.57
2017-05-24T11:35:17.363Z,5.13
2017-05-24T11:37:44.916Z,8.37
2017-05-24T11:40:11.932Z,6.75
2017-05-24T11:42:40.147Z,3.55
2017-05-24T11:45:07.867Z,5.15
2017-05-24T11:47:35.324Z,5.63
2017-05-24T11:50:02.991Z,7.68
2017-05-24T11:52:30.814Z,3.18
2017-05-24T11:54:57.475Z,5.23
2017-05-24T11:57:24.095Z,4.52
2017-05-24T11:59:50.739Z,3.22
2017-05-24T12:02:17.355Z,8.05
2017-05-24T12:04:43.971Z,7.35
2017-05-24T12:07:11.167Z,6.12
2017-05-24T12:09:37.779Z,4.88
2017-05-24T12:12:04.443Z,6.10
2017-05-24T12:14:31.084Z,4.65
2017-05-24T12:16:57.700Z,7.82
2017-05-24T12:19:24.314Z,5.48
2017-05-24T12:21:50.960Z,16.43
2017-05-24T12:24:17.576Z,5.50
2017-05-24T12:26:44.203Z,32.62
2017-05-24T12:29:10.915Z,8.05
2017-05-24T12:31:37.527Z,7.80
2017-05-24T12:34:04.151Z,18.62
2017-05-24T12:36:30.831Z,6.47
2017-05-24T12:38:57.460Z,27.32
2017-05-24T12:41:24.111Z,7.92
2017-05-24T12:43:50.855Z,28.80
2017-05-24T12:46:17.470Z,9.27
2017-05-24T12:48:44.097Z,21.88
2017-05-24T12:51:10.743Z,10.80
2017-05-24T12:53:37.410Z,16.15
2017-05-24T12:56:04.035Z,10.18
2017-05-24T12:58:30.684Z,15.98
2017-05-24T13:00:57.306Z,4.30
2017-05-24T13:03:23.933Z,16.90
2017-05-24T13:05:50.572Z,8.78
2017-05-24T13:08:17.187Z,5.02
2017-05-24T13:10:43.802Z,4.78
2017-05-24T13:13:10.439Z,5.08
2017-05-24T13:15:37.054Z,4.80
2017-05-24T13:18:03.672Z,3.13
2017-05-24T13:20:30.319Z,91.38
2017-05-24T13:22:56.948Z,41.85
2017-05-24T13:25:23.649Z,9.37
2017-05-24T13:27:50.292Z,33.00
2017-05-24T13:30:16.907Z,5.23
2017-05-24T13:32:43.531Z,52.73
2017-05-24T13:35:10.189Z,14.18
2017-05-24T13:37:36.811Z,5.30
2017-05-24T13:40:03.434Z,19.60
2017-05-24T13:42:30.192Z,37.00
2017-05-24T13:44:56.812Z,11.92
2017-05-24T13:47:23.435Z,8.13
2017-05-24T13:49:50.094Z,11.95
2017-05-24T13:52:16.711Z,10.68
2017-05-24T13:54:43.334Z,15.20
2017-05-24T13:57:09.975Z,18.63
2017-05-24T13:59:36.663Z,11.68
2017-05-24T14:02:03.279Z,4.80
2017-05-24T14:04:29.939Z,6.38
2017-05-24T14:06:56.614Z,7.85
2017-05-24T14:09:23.319Z,14.80
2017-05-24T14:11:49.962Z,6.90
2017-05-24T14:14:16.579Z,7.18
2017-05-24T14:16:43.237Z,6.62
2017-05-24T14:19:09.883Z,9.27
2017-05-24T14:21:36.507Z,3.67
2017-05-24T14:24:03.124Z,4.05
2017-05-24T14:26:29.973Z,4.05
2017-05-24T14:28:56.678Z,5.12
2017-05-24T14:31:24.392Z,4.08
2017-05-24T14:33:52.005Z,6.27
2017-05-24T14:36:18.842Z,6.22
2017-05-24T14:38:45.583Z,4.37
2017-05-24T14:41:12.427Z,4.87
2017-05-24T14:43:39.079Z,11.62
2017-05-24T14:46:05.692Z,6.77
2017-05-24T14:48:32.331Z,5.38
2017-05-24T14:50:58.950Z,17.10
2017-05-24T14:53:25.567Z,6.35
2017-05-24T14:55:52.207Z,9.57
2017-05-24T14:58:18.868Z,8.60
2017-05-24T15:00:45.491Z,18.75
2017-05-24T15:03:12.131Z,6.73
2017-05-24T15:05:38.751Z,11.07
2017-05-24T15:08:05.368Z,6.22
2017-05-24T15:10:32.024Z,13.20
2017-05-24T15:12:58.694Z,5.82
2017-05-24T15:15:27.663Z,11.65
2017-05-24T15:17:56.229Z,7.55
2017-05-24T15:20:25.918Z,8.43
2017-05-24T15:22:54.482Z,10.57
2017-05-24T15:25:26.165Z,10.20
2017-05-24T15:27:53.929Z,14.47
2017-05-24T15:30:29.066Z,4.60
2017-05-24T15:32:56.860Z,10.35
2017-05-24T15:35:24.104Z,8.53
2017-05-24T15:37:51.340Z,5.82
2017-05-24T15:40:18.031Z,3.72
2017-05-24T15:42:44.647Z,6.37
2017-05-24T15:45:11.267Z,4.78
2017-05-24T15:47:37.974Z,4.45
2017-05-24T15:50:04.582Z,6.72
2017-05-24T15:52:31.210Z,7.92
2017-05-24T15:54:57.879Z,7.13
2017-05-24T15:57:24.498Z,4.93
2017-05-24T15:59:51.155Z,5.38
2017-05-24T16:02:17.796Z,3.10
2017-05-24T16:04:44.568Z,7.28
2017-05-24T16:07:11.960Z,5.58
2017-05-24T16:09:38.668Z,3.98
2017-05-24T16:12:05.379Z,5.23
2017-05-24T16:14:32.471Z,7.80
2017-05-24T16:16:59.112Z,4.38
2017-05-24T16:19:25.727Z,3.55
2017-05-24T16:21:52.346Z,5.08
2017-05-24T16:24:19.391Z,3.32
2017-05-24T16:26:46.303Z,6.05
2017-05-24T16:29:12.920Z,6.30
2017-05-24T16:31:39.560Z,9.77
2017-05-24T16:34:06.259Z,20.03
2017-05-24T16:36:32.876Z,4.03
2017-05-24T16:38:59.567Z,5.95
2017-05-24T16:41:26.188Z,3.75
2017-05-24T16:43:52.807Z,3.92
2017-05-24T16:46:19.446Z,4.40
2017-05-24T16:48:46.066Z,5.17
2017-05-24T16:51:12.703Z,6.97
2017-05-24T16:53:39.343Z,7.88
2017-05-24T16:56:05.959Z,5.43
2017-05-24T16:58:32.642Z,5.77
2017-05-24T17:00:59.282Z,4.10
2017-05-24T17:03:25.901Z,6.82
2017-05-24T17:05:52.560Z,6.23
2017-05-24T17:08:19.199Z,4.00
2017-05-24T17:10:45.835Z,5.60
2017-05-24T17:13:12.510Z,3.97
2017-05-24T17:15:39.224Z,6.80
2017-05-24T17:18:05.834Z,4.88
2017-05-24T17:20:32.456Z,10.30
2017-05-24T17:22:59.103Z,4.13
2017-05-24T17:25:25.715Z,6.32
2017-05-24T17:27:52.337Z,5.32
2017-05-24T17:30:19.050Z,6.35
2017-05-24T17:32:45.671Z,6.78
2017-05-24T17:35:12.287Z,9.42
2017-05-24T17:37:38.936Z,21.88
2017-05-24T17:40:05.550Z,5.90
2017-05-24T17:42:32.176Z,8.20
2017-05-24T17:44:58.878Z,6.02
2017-05-24T17:47:25.527Z,4.63
2017-05-24T17:49:52.143Z,6.52
2017-05-24T17:52:18.803Z,7.83
2017-05-24T17:54:45.443Z,7.30
2017-05-24T17:57:12.059Z,7.37
2017-05-24T17:59:38.699Z,7.65
2017-05-24T18:02:05.325Z,10.42
2017-05-24T18:04:31.999Z,10.05
2017-05-24T18:06:58.639Z,11.15
2017-05-24T18:09:25.254Z,7.23
2017-05-24T18:11:51.882Z,9.62
2017-05-24T18:14:18.556Z,9.20
2017-05-24T18:16:45.195Z,9.23
2017-05-24T18:19:11.811Z,6.88
2017-05-24T18:21:38.451Z,8.25
2017-05-24T18:24:05.063Z,6.50
2017-05-24T18:26:31.683Z,12.03
2017-05-24T18:28:58.326Z,9.62
2017-05-24T18:31:24.944Z,6.78
2017-05-24T18:33:51.717Z,6.50
2017-05-24T18:36:18.336Z,7.12
2017-05-24T18:38:45.051Z,10.23
2017-05-24T18:41:11.668Z,9.33
2017-05-24T18:43:38.313Z,7.45
2017-05-24T18:46:04.934Z,10.20
2017-05-24T18:48:31.604Z,9.32
2017-05-24T18:50:58.286Z,6.30
2017-05-24T18:53:24.904Z,9.98
2017-05-24T18:55:51.515Z,6.03
2017-05-24T18:58:18.160Z,10.88
2017-05-24T19:00:44.771Z,9.37
2017-05-24T19:03:11.435Z,7.82
2017-05-24T19:05:38.072Z,7.80
2017-05-24T19:08:04.686Z,7.85
2017-05-24T19:10:31.351Z,8.67
2017-05-24T19:12:57.991Z,8.58
2017-05-24T19:15:24.610Z,11.47
2017-05-24T19:17:51.271Z,14.37
2017-05-24T19:20:18.099Z,18.05
2017-05-24T19:22:44.725Z,15.77
2017-05-24T19:25:11.347Z,17.75
2017-05-24T19:27:38.033Z,19.60
2017-05-24T19:30:04.655Z,23.22
2017-05-24T19:32:31.274Z,23.37
2017-05-24T19:34:57.924Z,25.25
2017-05-24T19:37:24.586Z,22.20
2017-05-24T19:39:51.233Z,20.23
2017-05-24T19:42:17.973Z,23.17
2017-05-24T19:44:44.607Z,21.90
2017-05-24T19:47:11.227Z,18.07
2017-05-24T19:49:37.883Z,20.38
2017-05-24T19:52:04.499Z,25.15
2017-05-24T19:54:31.119Z,28.92
2017-05-24T19:56:57.799Z,21.20
2017-05-24T19:59:24.419Z,20.98
2017-05-24T20:01:51.040Z,21.55
2017-05-24T20:04:17.687Z,23.53
2017-05-24T20:06:44.311Z,19.40
2017-05-24T20:09:10.935Z,21.00
2017-05-24T20:11:37.579Z,20.33
2017-05-24T20:14:04.199Z,24.10
2017-05-24T20:16:30.816Z,22.55
2017-05-24T20:18:57.655Z,22.97
2017-05-24T20:21:24.275Z,23.77
2017-05-24T20:23:50.895Z,20.67
2017-05-24T20:26:17.984Z,23.42
2017-05-24T20:28:44.603Z,22.07
2017-05-24T20:31:11.222Z,22.87
2017-05-24T20:33:37.866Z,25.38
2017-05-24T20:36:04.483Z,20.07
2017-05-24T20:38:31.179Z,23.60
2017-05-24T20:40:57.849Z,22.63
2017-05-24T20:43:24.561Z,23.60
2017-05-24T20:45:51.178Z,26.20
2017-05-24T20:48:17.823Z,22.60
2017-05-24T20:50:44.509Z,20.88
2017-05-24T20:53:11.123Z,33.98
2017-05-24T20:55:37.763Z,23.17
2017-05-24T20:58:04.507Z,24.50
2017-05-24T21:00:31.235Z,22.05
2017-05-24T21:02:57.883Z,24.08
2017-05-24T21:05:24.503Z,21.50
2017-05-24T21:07:51.123Z,22.92
2017-05-24T21:10:17.770Z,21.20
2017-05-24T21:12:44.387Z,23.07
2017-05-24T21:15:11.103Z,26.13
2017-05-24T21:17:37.740Z,26.12
2017-05-24T21:20:04.450Z,23.08
2017-05-24T21:22:31.086Z,28.90
2017-05-24T21:24:58.693Z,22.05
2017-05-24T21:27:25.389Z,24.05
2017-05-24T21:29:52.007Z,23.33
2017-05-24T21:32:18.766Z,28.50
2017-05-24T21:34:45.388Z,22.32
2017-05-24T21:37:12.006Z,22.18
2017-05-24T21:39:38.721Z,27.08
2017-05-24T21:42:05.339Z,23.00
2017-05-24T21:44:31.963Z,24.95
2017-05-24T21:46:58.608Z,23.02
2017-05-24T21:49:25.245Z,23.22
2017-05-24T21:51:51.886Z,22.97
2017-05-24T21:54:18.624Z,21.55
2017-05-24T21:56:45.258Z,20.68
2017-05-24T21:59:11.900Z,23.35
2017-05-24T22:01:38.541Z,26.60
2017-05-24T22:04:05.180Z,23.88
2017-05-24T22:06:31.799Z,20.17
2017-05-24T22:08:58.454Z,30.12
2017-05-24T22:11:25.081Z,23.68
2017-05-24T22:13:51.706Z,23.82
2017-05-24T22:16:18.371Z,25.65
2017-05-24T22:18:44.995Z,25.80
2017-05-24T22:21:11.659Z,24.73
2017-05-24T22:23:38.296Z,26.40
2017-05-24T22:26:04.920Z,22.43
2017-05-24T22:28:31.545Z,22.22
2017-05-24T22:30:58.182Z,23.27
2017-05-24T22:33:24.883Z,22.42
2017-05-24T22:35:51.504Z,25.78
2017-05-24T22:38:18.136Z,22.28
2017-05-24T22:40:44.759Z,22.08
2017-05-24T22:43:11.372Z,26.02
2017-05-24T22:45:38.015Z,24.05
2017-05-24T22:48:04.679Z,25.22
2017-05-24T22:50:31.298Z,21.72
2017-05-24T22:52:57.995Z,26.50
2017-05-24T22:55:24.614Z,26.43
2017-05-24T22:57:51.235Z,26.48
2017-05-24T23:00:17.891Z,25.17
2017-05-24T23:02:44.622Z,24.42
2017-05-24T23:05:11.355Z,24.05
2017-05-24T23:07:37.999Z,21.25
2017-05-24T23:10:04.639Z,25.63
2017-05-24T23:12:31.275Z,26.05
2017-05-24T23:14:57.919Z,25.13
2017-05-24T23:17:24.539Z,22.68
2017-05-24T23:19:51.155Z,24.92
2017-05-24T23:22:17.831Z,28.38
2017-05-24T23:24:44.451Z,22.97
2017-05-24T23:27:11.145Z,23.03
2017-05-24T23:29:37.783Z,24.55
2017-05-24T23:32:04.403Z,21.02
2017-05-24T23:34:31.031Z,24.28
2017-05-24T23:36:57.671Z,25.27
2017-05-24T23:39:24.296Z,30.52
2017-05-24T23:41:50.918Z,26.28
2017-05-24T23:44:17.570Z,27.43
2017-05-24T23:46:44.218Z,24.17
2017-05-24T23:49:10.839Z,23.63
2017-05-24T23:51:37.503Z,24.47
2017-05-24T23:54:04.124Z,24.02
2017-05-24T23:56:30.743Z,22.78
2017-05-24T23:58:57.386Z,24.02
